Moneta, Iowa
Current Conditions -  °F | °C
As of 6:53 AM on Friday 24 Oct 2014 (Local Time) from KSPW Reporting Station
Clear Clear  
Wind Chill: 52°   Ceiling: Unl
Heat Index: 52°   Visibility: 10mi
Dew Point: 49°   Wind: 5mph
Humidity: 89%   Direction: 190°S
Pressure: 29.87"   Gusts: NA
Location:  43.1758°N, 95.4927°W
Report Text: KSPW 241153Z AUTO 19004KT 10SM CLR 11/09 A2987 RMK AO2 SLP116 T01110094 10117 20078 56018 TSNO
Loading
Personal Weather Stations






























Interactive Weather Map
Tropical Storm Tracking
New forecast layout! Learn more

10-Day Weather Forecast

Advertisements
Track Severe Weather on mobile